Time;durP1;ratioP1;P1;durP2;ratioP2;P2;SDS_P1;SDS_P2;PMS_P1;PMS_P2;Temp;Humidity;BMP_temperature;BMP_pressure;BME280_temperature;BME280_humidity;BME280_pressure;Samples;Min_cycle;Max_cycle;Signal;HPM_P1;HPM_P2
2023/04/20 00:01:47;;;;;;;8.30;1.73;;;7.60;99.90;;;;;;5037784;28;20057;-35
2023/04/20 00:04:16;;;;;;;3.50;1.58;;;7.50;99.90;;;;;;5018820;28;20060;-34
2023/04/20 00:06:43;;;;;;;4.18;1.65;;;7.40;99.90;;;;;;5017446;28;20042;-34
2023/04/20 00:09:14;;;;;;;4.80;1.70;;;7.30;99.90;;;;;;5022031;28;20079;-34
2023/04/20 00:11:40;;;;;;;4.20;1.70;;;7.30;99.90;;;;;;5022772;28;20045;-34
2023/04/20 00:14:05;;;;;;;5.00;2.08;;;7.20;99.90;;;;;;5030910;28;20431;-35
2023/04/20 00:16:31;;;;;;;2.78;1.40;;;7.20;99.90;;;;;;5022921;28;20076;-35
2023/04/20 00:18:58;;;;;;;2.63;1.30;;;7.20;99.90;;;;;;5051406;28;20057;-35
2023/04/20 00:21:24;;;;;;;2.67;1.45;;;7.20;99.90;;;;;;5016705;28;20061;-35
2023/04/20 00:23:50;;;;;;;6.78;1.65;;;7.20;99.90;;;;;;5016050;28;20064;-35
2023/04/20 00:26:17;;;;;;;2.92;1.42;;;7.20;99.90;;;;;;5027164;28;20053;-35
2023/04/20 00:28:43;;;;;;;5.05;1.90;;;7.20;99.90;;;;;;5024515;28;20060;-35
2023/04/20 00:31:09;;;;;;;5.85;1.80;;;7.20;99.90;;;;;;5023386;28;20052;-35
2023/04/20 00:33:35;;;;;;;5.50;1.85;;;7.20;99.90;;;;;;5033303;28;20049;-36
2023/04/20 00:36:01;;;;;;;3.13;1.60;;;7.20;99.90;;;;;;5027040;28;20049;-35
2023/04/20 00:38:26;;;;;;;6.30;2.10;;;7.20;99.90;;;;;;5024044;28;20048;-35
2023/04/20 00:40:56;;;;;;;5.43;2.05;;;7.30;99.90;;;;;;5024364;28;20049;-35
2023/04/20 00:43:22;;;;;;;5.75;2.00;;;7.30;99.90;;;;;;5023554;28;20050;-35
2023/04/20 00:45:47;;;;;;;5.18;1.80;;;7.40;99.90;;;;;;5026478;28;20128;-35
2023/04/20 00:48:13;;;;;;;4.05;1.45;;;7.40;99.90;;;;;;5034172;28;20148;-35
2023/04/20 00:50:40;;;;;;;5.15;1.70;;;7.40;99.90;;;;;;5044146;28;20056;-35
2023/04/20 00:53:07;;;;;;;6.60;1.90;;;7.40;99.90;;;;;;5033523;28;20448;-35
2023/04/20 00:55:34;;;;;;;6.93;1.90;;;7.30;99.90;;;;;;5039385;28;20094;-35
2023/04/20 00:58:01;;;;;;;3.42;1.60;;;7.30;99.90;;;;;;5018901;28;20136;-34
2023/04/20 01:00:26;;;;;;;3.53;1.52;;;7.30;99.90;;;;;;5029428;28;20540;-36
2023/04/20 01:02:52;;;;;;;10.82;2.05;;;7.20;99.90;;;;;;5022847;28;20042;-35
2023/04/20 01:05:18;;;;;;;4.00;1.70;;;7.20;99.90;;;;;;5042855;28;20048;-35
2023/04/20 01:07:44;;;;;;;3.83;1.75;;;7.10;99.90;;;;;;5044021;28;20056;-36
2023/04/20 01:10:10;;;;;;;6.18;2.10;;;7.00;99.90;;;;;;5038088;28;20053;-35
2023/04/20 01:12:35;;;;;;;4.90;1.50;;;7.00;99.90;;;;;;5043043;28;20049;-34
2023/04/20 01:15:04;;;;;;;2.70;1.70;;;6.90;99.90;;;;;;5017387;28;20050;-34
2023/04/20 01:17:30;;;;;;;4.35;2.10;;;6.90;99.90;;;;;;5038566;28;20571;-35
2023/04/20 01:19:56;;;;;;;3.67;1.50;;;6.90;99.90;;;;;;5042341;28;20080;-34
2023/04/20 01:22:22;;;;;;;5.30;1.60;;;6.90;99.90;;;;;;5039893;28;20510;-34
2023/04/20 01:24:47;;;;;;;3.05;1.50;;;6.90;99.90;;;;;;5030016;28;20220;-34
2023/04/20 01:27:15;;;;;;;4.70;1.95;;;6.90;99.90;;;;;;5034481;28;20060;-35
2023/04/20 01:29:41;;;;;;;3.25;1.60;;;6.90;99.90;;;;;;5027693;28;20500;-35
2023/04/20 01:32:07;;;;;;;6.65;1.80;;;6.90;99.90;;;;;;5027231;28;20056;-34
2023/04/20 01:34:33;;;;;;;5.45;1.70;;;6.90;99.90;;;;;;5044224;28;20052;-34
2023/04/20 01:36:58;;;;;;;4.43;2.08;;;6.90;99.90;;;;;;5038558;28;20199;-34
2023/04/20 01:39:24;;;;;;;3.35;1.33;;;6.90;99.90;;;;;;5033640;28;20072;-34
2023/04/20 01:41:50;;;;;;;6.63;2.00;;;7.00;99.90;;;;;;5022462;28;20437;-34
2023/04/20 01:44:16;;;;;;;4.55;1.65;;;7.10;99.90;;;;;;5027003;28;20076;-34
2023/04/20 01:46:41;;;;;;;3.72;1.48;;;7.10;99.90;;;;;;5025895;28;20048;-34
2023/04/20 01:49:08;;;;;;;4.50;1.40;;;7.10;99.90;;;;;;5037783;28;20047;-34
2023/04/20 01:51:34;;;;;;;5.43;1.83;;;7.20;99.90;;;;;;5043819;28;20037;-34
2023/04/20 01:54:01;;;;;;;5.97;1.75;;;7.20;99.90;;;;;;5022431;28;20058;-34
2023/04/20 01:56:27;;;;;;;6.05;1.83;;;7.30;99.90;;;;;;5019393;28;20061;-34
2023/04/20 01:58:53;;;;;;;3.78;1.70;;;7.40;99.90;;;;;;5027802;28;20045;-34
2023/04/20 02:01:18;;;;;;;3.75;1.45;;;7.40;99.90;;;;;;5023059;28;20057;-34
2023/04/20 02:03:44;;;;;;;3.95;1.67;;;7.50;99.90;;;;;;5021618;28;20414;-34
2023/04/20 02:06:10;;;;;;;4.55;1.52;;;7.50;99.90;;;;;;5041871;28;20061;-34
2023/04/20 02:08:36;;;;;;;4.05;1.20;;;7.60;99.90;;;;;;5027531;28;20060;-34
2023/04/20 02:11:02;;;;;;;5.05;1.60;;;7.60;99.90;;;;;;5018778;28;29687;-34
2023/04/20 02:13:27;;;;;;;4.35;1.60;;;7.60;99.90;;;;;;5039269;28;20045;-35
2023/04/20 02:15:53;;;;;;;4.20;1.27;;;7.70;99.90;;;;;;5021715;28;20063;-34
2023/04/20 02:18:19;;;;;;;3.78;1.33;;;7.70;99.90;;;;;;5047496;28;20059;-34
2023/04/20 02:20:45;;;;;;;7.82;1.50;;;7.70;99.90;;;;;;5042593;28;20078;-34
2023/04/20 02:23:11;;;;;;;2.40;1.08;;;7.70;99.90;;;;;;5037153;28;20494;-35
2023/04/20 02:25:37;;;;;;;3.10;1.40;;;7.70;99.90;;;;;;5031858;28;20049;-35
2023/04/20 02:28:03;;;;;;;5.57;1.30;;;7.80;99.90;;;;;;5014857;28;20049;-34
2023/04/20 02:30:29;;;;;;;3.85;1.50;;;7.80;99.90;;;;;;5014974;28;20050;-35
2023/04/20 02:32:55;;;;;;;3.50;1.50;;;7.80;99.90;;;;;;5024977;28;20432;-34
2023/04/20 02:35:21;;;;;;;3.55;1.70;;;7.80;99.90;;;;;;5038140;28;20499;-35
2023/04/20 02:37:47;;;;;;;3.53;1.50;;;7.80;99.90;;;;;;5025785;28;20057;-34
2023/04/20 02:40:13;;;;;;;3.15;1.27;;;7.80;99.90;;;;;;5038869;28;20057;-34
2023/04/20 02:42:39;;;;;;;3.95;1.25;;;7.80;99.90;;;;;;5027325;28;20160;-34
2023/04/20 02:45:05;;;;;;;3.90;1.23;;;7.80;99.90;;;;;;5018901;28;20523;-35
2023/04/20 02:47:31;;;;;;;5.55;1.38;;;7.80;99.90;;;;;;5035752;28;20052;-44
2023/04/20 02:49:56;;;;;;;3.33;1.33;;;7.80;99.90;;;;;;5027678;28;20046;-34
2023/04/20 02:52:22;;;;;;;3.85;1.48;;;7.90;99.90;;;;;;5034196;28;20046;-35
2023/04/20 02:54:48;;;;;;;5.18;1.20;;;7.90;99.90;;;;;;5026224;28;20045;-35
2023/04/20 02:57:14;;;;;;;4.80;1.20;;;7.80;99.90;;;;;;5022128;28;20137;-34
2023/04/20 02:59:40;;;;;;;5.00;1.17;;;7.80;99.90;;;;;;5021981;28;20137;-35
2023/04/20 03:02:05;;;;;;;4.35;1.05;;;7.80;99.90;;;;;;5013942;28;20590;-35
2023/04/20 03:04:31;;;;;;;4.45;1.65;;;7.90;99.90;;;;;;5034522;28;20053;-35
2023/04/20 03:06:57;;;;;;;3.00;1.10;;;7.90;99.90;;;;;;5030707;28;20060;-35
2023/04/20 03:09:24;;;;;;;4.03;1.25;;;7.90;99.90;;;;;;5019178;28;20050;-35
2023/04/20 03:11:49;;;;;;;6.28;1.33;;;7.90;99.90;;;;;;5020999;28;20053;-34
2023/04/20 03:14:15;;;;;;;5.15;1.60;;;7.90;99.90;;;;;;5030383;28;20053;-36
2023/04/20 03:16:41;;;;;;;5.80;1.20;;;7.90;99.90;;;;;;5047453;28;20418;-35
2023/04/20 03:19:07;;;;;;;3.97;0.95;;;7.90;99.90;;;;;;5038593;28;20061;-35
2023/04/20 03:21:33;;;;;;;2.80;0.80;;;7.90;99.90;;;;;;5024768;28;20198;-35
2023/04/20 03:24:01;;;;;;;3.65;0.90;;;7.90;99.90;;;;;;5043632;28;20525;-35
2023/04/20 03:26:27;;;;;;;7.05;0.82;;;7.90;99.90;;;;;;5032447;28;20061;-34
2023/04/20 03:28:52;;;;;;;3.13;0.77;;;7.90;99.90;;;;;;5034390;28;20529;-35
2023/04/20 03:31:18;;;;;;;4.63;0.98;;;8.00;99.90;;;;;;5043040;28;20052;-34
2023/04/20 03:33:44;;;;;;;3.00;0.90;;;8.00;99.90;;;;;;5032723;28;20498;-34
2023/04/20 03:36:12;;;;;;;3.15;0.90;;;8.00;99.90;;;;;;5024014;28;20053;-34
2023/04/20 03:38:38;;;;;;;2.67;0.70;;;8.10;99.90;;;;;;5037519;28;20120;-34
2023/04/20 03:41:04;;;;;;;2.30;0.70;;;8.10;99.90;;;;;;5047007;28;20167;-34
2023/04/20 03:43:30;;;;;;;3.92;0.90;;;8.10;99.90;;;;;;5046558;28;20053;-34
2023/04/20 03:45:56;;;;;;;5.93;0.98;;;8.10;99.90;;;;;;5045102;28;20053;-36
2023/04/20 03:48:21;;;;;;;2.72;0.90;;;8.20;99.90;;;;;;5051175;28;20060;-34
2023/04/20 03:50:47;;;;;;;2.67;0.70;;;8.20;99.90;;;;;;5047010;28;20060;-36
2023/04/20 03:53:12;;;;;;;2.80;0.70;;;8.20;99.90;;;;;;5035478;28;20115;-34
2023/04/20 03:55:38;;;;;;;3.47;0.90;;;8.30;99.90;;;;;;5028112;28;20140;-34
2023/04/20 03:58:05;;;;;;;3.38;0.85;;;8.30;99.90;;;;;;5020462;28;20049;-34
2023/04/20 04:00:31;;;;;;;2.65;0.88;;;8.30;99.90;;;;;;5024716;28;20539;-34
2023/04/20 04:02:57;;;;;;;3.33;0.80;;;8.40;99.90;;;;;;5020442;28;20146;-35
2023/04/20 04:05:24;;;;;;;4.13;0.95;;;8.30;99.90;;;;;;5028520;28;20537;-34
2023/04/20 04:07:49;;;;;;;2.03;0.60;;;8.40;99.90;;;;;;5030990;28;20049;-34
2023/04/20 04:10:17;;;;;;;3.85;1.08;;;8.40;99.90;;;;;;5019493;28;20556;-34
2023/04/20 04:12:46;;;;;;;3.78;0.98;;;8.40;99.90;;;;;;5024426;28;20046;-34
2023/04/20 04:15:12;;;;;;;5.32;1.08;;;8.40;99.90;;;;;;5026068;28;20049;-35
2023/04/20 04:17:38;;;;;;;2.63;0.90;;;8.40;99.90;;;;;;5031428;28;20048;-35
2023/04/20 04:20:08;;;;;;;3.45;0.93;;;8.40;99.90;;;;;;5039225;28;20049;-36
2023/04/20 04:22:34;;;;;;;3.75;0.90;;;8.40;99.90;;;;;;5038528;28;20613;-35
2023/04/20 04:24:59;;;;;;;2.13;0.90;;;8.40;99.90;;;;;;5033920;28;20136;-34
2023/04/20 04:27:28;;;;;;;2.42;0.90;;;8.40;99.90;;;;;;5023496;28;20049;-34
2023/04/20 04:29:55;;;;;;;4.20;0.75;;;8.40;99.90;;;;;;5024231;28;20069;-37
2023/04/20 04:32:23;;;;;;;4.15;0.70;;;8.40;99.90;;;;;;5035302;28;20053;-36
2023/04/20 04:34:49;;;;;;;3.17;0.70;;;8.40;99.90;;;;;;5032169;28;20057;-35
2023/04/20 04:37:15;;;;;;;2.35;0.80;;;8.40;99.90;;;;;;5028363;28;20422;-34
2023/04/20 04:39:40;;;;;;;5.15;1.10;;;8.40;99.90;;;;;;5029753;28;20057;-35
2023/04/20 04:42:06;;;;;;;3.10;1.10;;;8.40;99.90;;;;;;5028794;28;20049;-35
2023/04/20 04:44:32;;;;;;;2.53;0.75;;;8.40;99.90;;;;;;5039938;28;20057;-35
2023/04/20 04:46:57;;;;;;;2.47;0.73;;;8.30;99.90;;;;;;5039561;28;20422;-35
2023/04/20 04:49:23;;;;;;;6.78;0.88;;;8.30;99.90;;;;;;5034490;28;20076;-34
2023/04/20 04:51:49;;;;;;;3.55;0.80;;;8.30;99.90;;;;;;5016354;28;20050;-35
2023/04/20 04:54:15;;;;;;;2.47;1.00;;;8.20;99.90;;;;;;5018297;28;20050;-34
2023/04/20 04:56:40;;;;;;;2.92;0.73;;;8.20;99.90;;;;;;5027098;28;20044;-35
2023/04/20 04:59:06;;;;;;;2.75;1.02;;;8.10;99.90;;;;;;5037811;28;20492;-35
2023/04/20 05:01:32;;;;;;;2.70;1.25;;;8.10;99.90;;;;;;5034598;28;20083;-34
2023/04/20 05:03:57;;;;;;;4.60;0.95;;;8.00;99.90;;;;;;5039235;28;20050;-35
2023/04/20 05:06:23;;;;;;;4.00;0.85;;;8.00;99.90;;;;;;5036421;28;20136;-34
2023/04/20 05:08:49;;;;;;;3.25;0.90;;;7.90;99.90;;;;;;5039668;28;20176;-34
2023/04/20 05:11:14;;;;;;;2.22;0.85;;;7.90;99.90;;;;;;5014774;28;20102;-34
2023/04/20 05:13:40;;;;;;;3.38;1.00;;;7.90;99.90;;;;;;5038506;28;20068;-34
2023/04/20 05:16:06;;;;;;;3.38;1.00;;;7.90;99.90;;;;;;5040338;28;20045;-35
2023/04/20 05:18:31;;;;;;;3.53;1.35;;;7.80;99.90;;;;;;5024746;28;20049;-35
2023/04/20 05:20:57;;;;;;;5.38;1.13;;;7.80;99.90;;;;;;5031589;28;20044;-35
2023/04/20 05:23:23;;;;;;;4.28;1.25;;;7.80;99.90;;;;;;5022468;28;20077;-35
2023/04/20 05:25:49;;;;;;;3.33;1.00;;;7.80;99.90;;;;;;5015898;28;20060;-35
2023/04/20 05:28:14;;;;;;;2.92;1.00;;;7.80;99.90;;;;;;5018524;28;20057;-34
2023/04/20 05:30:40;;;;;;;3.50;0.85;;;7.80;99.90;;;;;;5017274;28;20488;-35
2023/04/20 05:33:05;;;;;;;4.70;1.20;;;7.80;99.90;;;;;;5044464;28;20061;-35
2023/04/20 05:35:31;;;;;;;2.65;1.02;;;7.80;99.90;;;;;;5029422;28;20392;-35
2023/04/20 05:37:59;;;;;;;2.95;0.88;;;7.80;99.90;;;;;;5025238;28;20056;-35
2023/04/20 05:40:25;;;;;;;3.40;1.00;;;7.80;99.90;;;;;;5019643;28;20053;-35
2023/04/20 05:42:51;;;;;;;2.25;0.82;;;7.80;99.90;;;;;;5016458;28;20084;-35
2023/04/20 05:45:17;;;;;;;4.15;1.00;;;7.80;99.90;;;;;;5022625;28;20049;-35
2023/04/20 05:47:51;;;;;;;6.32;1.30;;;7.80;99.90;;;;;;5036541;28;20060;-35
2023/04/20 05:50:17;;;;;;;2.45;1.00;;;7.80;99.90;;;;;;5017453;28;20053;-35
2023/04/20 05:52:43;;;;;;;4.38;1.10;;;7.80;99.90;;;;;;5019712;28;20598;-35
2023/04/20 05:55:08;;;;;;;4.00;1.00;;;7.80;99.90;;;;;;5026342;28;20126;-35
2023/04/20 05:57:41;;;;;;;3.33;1.02;;;7.90;99.90;;;;;;5008313;28;20141;-34
2023/04/20 06:00:10;;;;;;;2.72;1.10;;;7.80;99.90;;;;;;5013153;28;20041;-35
2023/04/20 06:02:36;;;;;;;3.47;1.05;;;7.80;99.90;;;;;;5018692;28;20503;-35
2023/04/20 06:05:02;;;;;;;4.65;1.08;;;7.80;99.90;;;;;;5036574;28;20067;-35
2023/04/20 06:07:27;;;;;;;2.95;1.25;;;7.80;99.90;;;;;;5033192;28;20148;-35
2023/04/20 06:09:53;;;;;;;3.47;1.15;;;7.90;99.90;;;;;;5022960;28;20444;-35
2023/04/20 06:12:19;;;;;;;5.47;0.98;;;7.80;99.90;;;;;;5040280;28;20051;-35
2023/04/20 06:14:45;;;;;;;1.58;0.75;;;7.90;99.90;;;;;;5033060;28;20056;-35
2023/04/20 06:17:10;;;;;;;4.38;1.00;;;7.90;99.90;;;;;;5020919;28;20098;-35
2023/04/20 06:19:36;;;;;;;2.50;0.80;;;7.90;99.90;;;;;;5028804;28;20141;-35
2023/04/20 06:22:08;;;;;;;2.58;1.20;;;7.90;99.90;;;;;;5036167;28;20461;-36
2023/04/20 06:24:34;;;;;;;4.73;1.20;;;7.80;99.90;;;;;;5043265;28;20158;-36
2023/04/20 06:27:00;;;;;;;2.13;0.90;;;7.80;99.90;;;;;;5032656;28;20788;-35
2023/04/20 06:29:27;;;;;;;2.90;0.95;;;7.80;99.90;;;;;;5035329;28;20447;-35
2023/04/20 06:31:53;;;;;;;2.45;0.88;;;7.80;99.90;;;;;;5019234;28;20049;-35
2023/04/20 06:34:18;;;;;;;3.13;1.05;;;7.70;99.90;;;;;;5026690;28;20054;-35
2023/04/20 06:36:44;;;;;;;4.05;1.02;;;7.70;99.90;;;;;;5021836;28;20052;-36
2023/04/20 06:39:13;;;;;;;4.90;1.00;;;7.60;99.90;;;;;;5041303;28;20063;-34
2023/04/20 06:41:38;;;;;;;3.90;1.05;;;7.60;99.90;;;;;;5033091;28;20133;-34
2023/04/20 06:44:04;;;;;;;3.30;1.30;;;7.50;99.90;;;;;;5015735;28;20049;-34
2023/04/20 06:46:30;;;;;;;5.00;1.65;;;7.40;99.90;;;;;;5043707;28;20048;-34
2023/04/20 06:48:57;;;;;;;4.13;1.10;;;7.40;99.90;;;;;;5034269;28;20101;-34
2023/04/20 06:51:23;;;;;;;2.92;1.30;;;7.30;99.90;;;;;;5021865;28;20396;-33
2023/04/20 06:53:49;;;;;;;4.90;1.27;;;7.20;99.90;;;;;;5021137;28;20104;-33
2023/04/20 06:56:15;;;;;;;4.55;1.75;;;7.10;99.90;;;;;;5032354;28;20414;-36
2023/04/20 06:58:40;;;;;;;6.95;1.45;;;7.00;99.90;;;;;;5027192;28;20048;-36
2023/04/20 07:01:06;;;;;;;2.95;1.20;;;6.90;99.90;;;;;;5033973;28;20043;-36
2023/04/20 07:03:32;;;;;;;4.38;1.63;;;6.90;99.90;;;;;;5025077;28;20056;-36
2023/04/20 07:05:58;;;;;;;4.72;1.30;;;6.80;99.90;;;;;;5013194;28;20099;-36
2023/04/20 07:08:23;;;;;;;5.35;1.40;;;6.80;99.90;;;;;;5029769;28;20089;-36
2023/04/20 07:10:49;;;;;;;4.88;1.58;;;6.70;99.90;;;;;;5016185;28;20075;-36
2023/04/20 07:13:15;;;;;;;7.53;1.48;;;6.70;99.90;;;;;;5027363;28;20096;-36
2023/04/20 07:15:42;;;;;;;6.95;1.80;;;6.70;99.90;;;;;;5014519;28;20506;-37
2023/04/20 07:18:08;;;;;;;2.65;1.33;;;6.80;99.90;;;;;;5023879;28;20053;-37
2023/04/20 07:20:33;;;;;;;6.50;1.50;;;6.80;99.90;;;;;;5048731;28;20565;-36
2023/04/20 07:22:59;;;;;;;3.33;1.27;;;6.80;99.90;;;;;;5045805;28;20057;-36
2023/04/20 07:25:25;;;;;;;3.97;1.27;;;6.80;99.90;;;;;;5036705;28;20542;-36
2023/04/20 07:27:50;;;;;;;4.95;1.40;;;6.80;99.90;;;;;;5036037;28;20080;-36
2023/04/20 07:30:16;;;;;;;3.50;1.73;;;6.70;99.90;;;;;;5020732;28;20539;-36
2023/04/20 07:32:42;;;;;;;4.90;1.30;;;6.70;99.90;;;;;;5046908;28;20065;-36
2023/04/20 07:35:08;;;;;;;4.93;1.40;;;6.80;99.90;;;;;;5041399;28;20053;-36
2023/04/20 07:37:34;;;;;;;6.82;1.70;;;6.80;99.90;;;;;;5024623;28;20058;-36
2023/04/20 07:40:01;;;;;;;4.32;1.27;;;6.80;99.90;;;;;;5019678;28;20060;-35
2023/04/20 07:42:27;;;;;;;7.18;1.52;;;6.80;99.90;;;;;;5026391;28;20434;-36
2023/04/20 07:44:53;;;;;;;2.53;1.10;;;6.80;99.90;;;;;;5035115;28;20056;-36
2023/04/20 07:47:19;;;;;;;3.25;1.33;;;6.90;99.90;;;;;;5021899;28;20549;-36
2023/04/20 07:49:45;;;;;;;4.55;1.63;;;6.90;99.90;;;;;;5029935;28;20061;-37
2023/04/20 07:52:11;;;;;;;3.75;1.73;;;7.00;99.90;;;;;;5032939;28;20061;-37
2023/04/20 07:54:37;;;;;;;4.78;1.60;;;7.10;99.90;;;;;;5038370;28;20041;-36
2023/04/20 07:57:03;;;;;;;5.88;1.70;;;7.20;99.90;;;;;;5030697;28;20045;-36
2023/04/20 07:59:29;;;;;;;3.05;1.55;;;7.20;99.90;;;;;;5019169;28;20120;-36
2023/04/20 08:01:59;;;;;;;3.38;1.52;;;7.20;99.90;;;;;;5021785;28;20049;-36
2023/04/20 08:04:25;;;;;;;5.07;1.50;;;7.30;99.90;;;;;;5027479;28;20062;-35
2023/04/20 08:06:51;;;;;;;3.03;1.40;;;7.30;99.90;;;;;;5041299;28;20044;-36
2023/04/20 08:09:17;;;;;;;3.72;1.50;;;7.40;99.90;;;;;;5016390;28;20038;-36
2023/04/20 08:11:45;;;;;;;4.85;1.92;;;7.50;99.90;;;;;;5031855;28;20050;-36
2023/04/20 08:14:11;;;;;;;4.25;1.75;;;7.60;99.90;;;;;;5015075;28;20084;-37
2023/04/20 08:16:37;;;;;;;4.10;1.60;;;7.60;99.90;;;;;;5010853;28;20145;-37
2023/04/20 08:19:08;;;;;;;5.60;1.83;;;7.70;99.90;;;;;;5033909;28;20542;-37
2023/04/20 08:21:44;;;;;;;3.80;1.40;;;7.80;99.90;;;;;;5043534;28;20045;-36
2023/04/20 08:24:10;;;;;;;4.78;1.70;;;7.90;99.90;;;;;;5023265;28;20063;-37
2023/04/20 08:26:36;;;;;;;3.80;1.38;;;7.90;99.90;;;;;;5017664;28;20559;-36
2023/04/20 08:29:02;;;;;;;4.10;1.70;;;8.00;99.90;;;;;;5033831;28;20123;-35
2023/04/20 08:31:27;;;;;;;5.47;1.77;;;8.10;99.90;;;;;;5023687;28;20077;-35
2023/04/20 08:33:53;;;;;;;5.88;1.40;;;8.20;99.90;;;;;;5030323;28;20152;-36
2023/04/20 08:36:19;;;;;;;3.85;1.52;;;8.30;99.90;;;;;;5035874;28;20504;-35
2023/04/20 08:38:45;;;;;;;3.72;1.65;;;8.40;99.90;;;;;;5014904;28;20511;-35
2023/04/20 08:41:12;;;;;;;3.58;1.60;;;8.40;99.90;;;;;;5031633;28;20045;-37
2023/04/20 08:43:38;;;;;;;3.42;1.80;;;8.50;99.90;;;;;;5027515;28;20426;-36
2023/04/20 08:46:04;;;;;;;4.95;1.77;;;8.60;99.90;;;;;;5047114;28;20152;-36
2023/04/20 08:48:37;;;;;;;2.97;1.50;;;8.80;99.90;;;;;;5033836;28;20136;-36
2023/04/20 08:51:03;;;;;;;4.63;1.90;;;8.80;99.90;;;;;;5013524;28;20058;-36
2023/04/20 08:53:32;;;;;;;7.05;1.90;;;8.80;99.90;;;;;;5030933;28;20053;-36
2023/04/20 08:55:58;;;;;;;4.43;2.28;;;8.90;99.90;;;;;;5024495;28;20090;-36
2023/04/20 08:58:27;;;;;;;6.90;2.22;;;8.90;99.90;;;;;;5045510;28;20053;-37
2023/04/20 09:00:53;;;;;;;5.13;2.03;;;8.90;99.90;;;;;;5037227;28;20395;-37
2023/04/20 09:03:33;;;;;;;4.15;1.80;;;8.90;99.90;;;;;;5040714;28;20064;-36
2023/04/20 09:05:58;;;;;;;5.78;2.35;;;8.80;99.90;;;;;;5024757;28;20530;-36
2023/04/20 09:08:39;;;;;;;6.20;2.30;;;8.80;99.90;;;;;;5038968;28;20057;-36
2023/04/20 09:11:06;;;;;;;5.03;1.90;;;8.70;99.90;;;;;;5027108;28;20546;-36
2023/04/20 09:13:32;;;;;;;4.80;1.90;;;8.80;99.90;;;;;;5019083;28;20060;-36
2023/04/20 09:16:10;;;;;;;5.90;1.85;;;8.90;99.90;;;;;;5044062;28;20049;-36
2023/04/20 09:18:36;;;;;;;5.82;2.10;;;9.00;99.90;;;;;;5030742;28;20052;-37
2023/04/20 09:21:09;;;;;;;6.25;2.00;;;9.00;99.90;;;;;;5039459;28;20155;-36
2023/04/20 09:23:35;;;;;;;6.22;2.03;;;9.00;99.90;;;;;;5039014;28;20061;-37
2023/04/20 09:26:01;;;;;;;4.38;2.15;;;9.00;99.90;;;;;;5039846;28;20052;-36
2023/04/20 09:28:40;;;;;;;5.50;2.35;;;9.10;99.90;;;;;;5039115;28;20800;-36
2023/04/20 09:31:17;;;;;;;4.50;2.00;;;9.10;99.90;;;;;;5043004;28;20458;-36
2023/04/20 09:33:43;;;;;;;4.25;2.35;;;9.10;99.90;;;;;;5031791;28;20487;-36
2023/04/20 09:36:09;;;;;;;6.05;2.40;;;9.20;99.90;;;;;;5041222;28;20065;-36
2023/04/20 09:38:35;;;;;;;3.22;1.88;;;9.40;99.90;;;;;;5042638;28;20053;-36
2023/04/20 09:41:01;;;;;;;3.97;2.05;;;9.50;99.90;;;;;;5044453;28;20045;-36
2023/04/20 09:43:29;;;;;;;4.13;2.03;;;9.50;99.90;;;;;;5045844;28;20052;-37
2023/04/20 09:45:58;;;;;;;4.15;2.00;;;9.50;99.90;;;;;;5032599;28;20493;-36
2023/04/20 09:48:24;;;;;;;4.82;2.05;;;9.50;99.90;;;;;;5042526;28;20048;-37
2023/04/20 09:50:49;;;;;;;5.68;2.60;;;9.50;99.90;;;;;;5043135;28;20049;-37
2023/04/20 09:53:16;;;;;;;4.43;1.92;;;9.40;99.90;;;;;;5028818;28;20053;-38
2023/04/20 09:55:50;;;;;;;6.03;2.33;;;9.40;99.90;;;;;;5022333;28;20458;-37
2023/04/20 09:58:19;;;;;;;5.43;2.22;;;9.50;99.90;;;;;;5030667;28;20294;-37
2023/04/20 10:00:45;;;;;;;4.25;2.35;;;9.50;99.90;;;;;;5046759;28;20065;-37
2023/04/20 10:03:14;;;;;;;5.47;2.55;;;9.60;99.90;;;;;;5045072;28;20087;-37
2023/04/20 10:05:41;;;;;;;5.60;2.30;;;9.60;99.90;;;;;;5040610;28;20080;-37
2023/04/20 10:08:07;;;;;;;4.60;2.28;;;9.70;99.90;;;;;;5030822;28;20049;-37
2023/04/20 10:10:44;;;;;;;6.65;3.15;;;10.00;99.90;;;;;;5046114;28;20499;-37
2023/04/20 10:13:09;;;;;;;4.38;2.28;;;10.20;99.90;;;;;;5043595;28;20617;-37
2023/04/20 10:15:37;;;;;;;6.00;2.67;;;10.40;99.90;;;;;;5043481;28;20061;-37
2023/04/20 10:18:23;;;;;;;5.22;2.10;;;10.80;99.90;;;;;;5044931;28;20077;-37
2023/04/20 10:20:49;;;;;;;5.50;2.70;;;11.20;99.90;;;;;;5033507;28;20061;-37
2023/04/20 10:23:17;;;;;;;6.10;2.47;;;11.30;99.90;;;;;;5047998;28;20056;-36
2023/04/20 10:25:55;;;;;;;6.20;2.67;;;11.30;99.90;;;;;;5041886;28;20080;-37
2023/04/20 10:28:20;;;;;;;4.72;2.33;;;11.40;99.90;;;;;;5044893;28;20072;-36
2023/04/20 10:30:51;;;;;;;5.93;2.75;;;11.70;99.90;;;;;;5020945;28;20081;-37
2023/04/20 10:33:17;;;;;;;5.13;2.47;;;12.00;99.90;;;;;;5021742;28;20061;-38
2023/04/20 10:35:54;;;;;;;5.70;2.88;;;12.20;99.90;;;;;;5035290;28;20072;-36
2023/04/20 10:38:31;;;;;;;5.32;2.67;;;12.10;99.90;;;;;;5040125;28;20502;-37
2023/04/20 10:41:06;;;;;;;5.43;3.10;;;12.20;99.90;;;;;;5035346;28;20041;-37
2023/04/20 10:43:34;;;;;;;4.38;2.80;;;12.30;99.90;;;;;;5031146;28;20137;-37
2023/04/20 10:45:59;;;;;;;6.30;2.88;;;12.20;99.90;;;;;;5028558;28;20060;-37
2023/04/20 10:48:25;;;;;;;6.38;2.83;;;12.20;99.90;;;;;;5035621;28;20497;-40
2023/04/20 10:50:51;;;;;;;6.80;2.85;;;12.10;99.90;;;;;;5036907;28;20058;-36
2023/04/20 10:53:18;;;;;;;4.93;2.75;;;12.10;99.90;;;;;;5025373;28;20064;-36
2023/04/20 10:55:44;;;;;;;6.18;3.28;;;12.20;99.90;;;;;;5030053;28;20436;-37
2023/04/20 10:58:21;;;;;;;5.25;2.58;;;12.30;99.90;;;;;;5037594;28;20152;-36
2023/04/20 11:01:00;;;;;;;5.63;2.97;;;12.40;99.90;;;;;;5037926;28;20051;-37
2023/04/20 11:03:29;;;;;;;4.88;2.72;;;12.40;99.90;;;;;;5017097;28;20050;-36
2023/04/20 11:05:59;;;;;;;5.38;2.60;;;12.30;99.90;;;;;;5036086;28;20163;-37
2023/04/20 11:08:38;;;;;;;4.78;3.30;;;12.30;99.90;;;;;;5039504;28;20078;-37
2023/04/20 11:11:04;;;;;;;6.00;3.13;;;12.30;99.90;;;;;;5032565;28;20510;-37
2023/04/20 11:13:31;;;;;;;4.65;2.80;;;12.30;99.90;;;;;;5019482;28;20053;-36
2023/04/20 11:15:58;;;;;;;5.05;2.90;;;12.20;99.90;;;;;;5025235;28;20049;-37
2023/04/20 11:18:23;;;;;;;6.80;2.75;;;12.40;99.90;;;;;;5011166;28;20057;-36
2023/04/20 11:20:51;;;;;;;7.18;3.10;;;12.50;99.90;;;;;;5024746;28;20131;-37
2023/04/20 11:23:19;;;;;;;6.25;3.08;;;12.60;99.90;;;;;;5029161;28;20052;-36
2023/04/20 11:25:52;;;;;;;5.82;3.35;;;12.80;99.90;;;;;;5035556;28;20064;-37
2023/04/20 11:28:18;;;;;;;7.60;3.58;;;12.90;99.90;;;;;;5022394;28;20045;-37
2023/04/20 11:30:44;;;;;;;8.68;3.53;;;13.00;99.90;;;;;;5017492;28;20053;-37
2023/04/20 11:33:10;;;;;;;6.82;3.85;;;13.00;99.90;;;;;;5009431;28;20062;-37
2023/04/20 11:35:37;;;;;;;5.25;2.85;;;13.00;99.90;;;;;;5013104;28;20546;-38
2023/04/20 11:38:03;;;;;;;6.47;3.42;;;13.00;99.90;;;;;;5018852;28;20057;-37
2023/04/20 11:40:29;;;;;;;5.28;3.38;;;13.00;99.90;;;;;;5020987;28;20053;-36
2023/04/20 11:42:55;;;;;;;6.75;3.75;;;12.80;99.90;;;;;;5016644;28;20090;-37
2023/04/20 11:45:20;;;;;;;6.53;3.70;;;12.80;99.90;;;;;;5020880;28;20058;-36
2023/04/20 11:47:48;;;;;;;6.35;3.78;;;12.90;99.90;;;;;;5019876;28;20053;-36
2023/04/20 11:50:13;;;;;;;5.88;3.22;;;13.10;99.90;;;;;;5014347;28;20103;-37
2023/04/20 11:52:39;;;;;;;6.55;3.05;;;13.40;99.90;;;;;;5032870;28;20068;-36
2023/04/20 11:55:05;;;;;;;4.88;2.97;;;13.60;99.90;;;;;;5027245;28;20061;-37
2023/04/20 11:57:31;;;;;;;7.32;3.47;;;13.60;99.90;;;;;;5047596;28;20465;-36
2023/04/20 11:59:57;;;;;;;7.63;3.55;;;13.70;99.90;;;;;;5037817;28;20049;-37
2023/04/20 12:02:22;;;;;;;4.53;2.90;;;13.70;99.90;;;;;;5028490;28;20095;-36
2023/04/20 12:04:48;;;;;;;5.32;2.88;;;13.60;99.90;;;;;;5031164;28;20053;-36
2023/04/20 12:07:13;;;;;;;5.05;3.03;;;13.60;99.90;;;;;;5033806;28;20045;-36
2023/04/20 12:09:40;;;;;;;5.82;3.22;;;13.30;99.90;;;;;;5021681;28;20061;-36
2023/04/20 12:12:07;;;;;;;5.82;3.63;;;13.10;99.90;;;;;;5032295;28;20049;-36
2023/04/20 12:14:33;;;;;;;9.05;3.60;;;12.90;99.90;;;;;;5026028;28;20114;-36
2023/04/20 12:17:00;;;;;;;6.72;3.45;;;12.50;99.90;;;;;;5023873;28;20563;-37
2023/04/20 12:19:26;;;;;;;5.85;3.63;;;12.40;99.90;;;;;;5015901;28;20057;-37
2023/04/20 12:21:52;;;;;;;7.60;3.88;;;12.30;99.90;;;;;;5015665;28;20112;-37
2023/04/20 12:24:17;;;;;;;5.97;3.55;;;12.20;99.90;;;;;;5022266;28;20114;-36
2023/04/20 12:26:43;;;;;;;6.97;3.70;;;12.30;99.90;;;;;;5022180;28;20054;-36
2023/04/20 12:29:09;;;;;;;7.68;3.63;;;12.40;99.90;;;;;;5029910;28;20068;-36
2023/04/20 12:31:35;;;;;;;6.60;3.55;;;12.50;99.90;;;;;;5022195;28;20057;-36
2023/04/20 12:34:01;;;;;;;5.57;3.33;;;12.60;99.90;;;;;;5038909;28;20045;-37
2023/04/20 12:36:27;;;;;;;6.05;3.50;;;12.60;99.90;;;;;;5029176;28;20045;-36
2023/04/20 12:38:54;;;;;;;8.70;3.60;;;12.60;99.90;;;;;;5020885;28;21273;-37
2023/04/20 12:41:21;;;;;;;9.85;4.05;;;12.80;99.90;;;;;;5023334;28;20132;-37
2023/04/20 12:43:48;;;;;;;6.00;3.15;;;13.20;99.90;;;;;;5033670;28;20160;-36
2023/04/20 12:46:14;;;;;;;5.40;3.30;;;13.70;99.90;;;;;;5015778;28;20073;-36
2023/04/20 12:48:40;;;;;;;5.57;3.80;;;13.90;99.90;;;;;;5016839;28;20135;-36
2023/04/20 12:51:06;;;;;;;7.20;3.95;;;13.90;99.90;;;;;;5012468;28;20053;-36
2023/04/20 12:53:31;;;;;;;6.93;3.78;;;13.80;99.90;;;;;;5022722;28;20466;-37